createdAt,value
2023-04-14T00:01:17.526Z,58.22
2023-04-14T00:03:45.802Z,59.26
2023-04-14T00:06:13.847Z,60.52
2023-04-14T00:08:41.718Z,61.45
2023-04-14T00:11:09.696Z,64.36
2023-04-14T00:13:38.082Z,67.28
2023-04-14T00:16:07.147Z,66.51
2023-04-14T00:18:34.853Z,64.52
2023-04-14T00:21:02.849Z,63.60
2023-04-14T00:23:30.716Z,60.19
2023-04-14T00:25:58.548Z,57.19
2023-04-14T00:28:26.447Z,57.54
2023-04-14T00:30:54.255Z,58.52
2023-04-14T00:33:22.120Z,59.58
2023-04-14T00:35:49.901Z,60.58
2023-04-14T00:38:17.769Z,63.08
2023-04-14T00:40:45.643Z,66.07
2023-04-14T00:43:13.468Z,65.40
2023-04-14T00:45:46.284Z,64.62
2023-04-14T00:48:15.824Z,64.30
2023-04-14T00:50:44.152Z,63.20
2023-04-14T00:53:13.181Z,59.97
2023-04-14T00:55:41.806Z,57.09
2023-04-14T00:58:10.552Z,57.60
2023-04-14T01:00:38.549Z,58.64
2023-04-14T01:03:07.246Z,59.77
2023-04-14T01:05:35.449Z,60.91
2023-04-14T01:08:04.350Z,63.80
2023-04-14T01:10:41.201Z,67.31
2023-04-14T01:13:20.996Z,67.52
2023-04-14T01:15:56.538Z,68.99
2023-04-14T01:18:53.378Z,64.20
2023-04-14T01:21:26.336Z,59.43
2023-04-14T01:24:15.761Z,56.31
2023-04-14T01:26:45.544Z,56.66
2023-04-14T01:29:58.183Z,58.19
2023-04-14T01:32:29.325Z,58.84
2023-04-14T01:35:03.275Z,60.57
2023-04-14T01:37:35.649Z,63.67
2023-04-14T01:40:11.385Z,67.12
2023-04-14T01:42:46.488Z,65.99
2023-04-14T01:45:23.794Z,64.47
2023-04-14T01:47:52.584Z,63.45
2023-04-14T01:50:22.551Z,59.89
2023-04-14T01:52:54.287Z,57.08
2023-04-14T01:55:25.658Z,57.42
2023-04-14T01:57:57.606Z,58.66
2023-04-14T02:00:26.624Z,59.66
2023-04-14T02:02:55.076Z,60.78
2023-04-14T02:05:24.539Z,63.33
2023-04-14T02:07:55.011Z,66.33
2023-04-14T02:10:24.461Z,65.83
2023-04-14T02:12:57.082Z,64.62
2023-04-14T02:15:28.672Z,63.17
2023-04-14T02:17:58.342Z,60.12
2023-04-14T02:20:28.473Z,57.15
2023-04-14T02:22:56.798Z,57.66
2023-04-14T02:25:29.930Z,58.90
2023-04-14T02:28:02.864Z,59.94
2023-04-14T02:30:35.363Z,61.08
2023-04-14T02:33:07.349Z,64.24
2023-04-14T02:35:46.331Z,67.19
2023-04-14T02:38:22.268Z,66.06
2023-04-14T02:40:50.879Z,64.98
2023-04-14T02:43:24.952Z,63.37
2023-04-14T02:45:56.218Z,62.51
2023-04-14T02:48:28.159Z,58.83
2023-04-14T02:50:59.422Z,56.25
2023-04-14T02:53:28.732Z,56.78
2023-04-14T02:56:07.452Z,58.11
2023-04-14T02:58:38.273Z,59.49
2023-04-14T03:01:07.098Z,60.76
2023-04-14T03:03:37.689Z,63.66
2023-04-14T03:06:07.302Z,67.09
2023-04-14T03:08:37.450Z,66.33
2023-04-14T03:11:06.835Z,64.89
2023-04-14T03:13:35.650Z,64.05
2023-04-14T03:16:04.911Z,62.77
2023-04-14T03:18:35.377Z,59.62
2023-04-14T03:21:05.174Z,57.11
2023-04-14T03:23:36.222Z,57.81
2023-04-14T03:26:07.815Z,59.14
2023-04-14T03:28:39.603Z,60.24
2023-04-14T03:31:11.323Z,63.20
2023-04-14T03:33:55.706Z,66.77
2023-04-14T03:36:26.395Z,65.93
2023-04-14T03:38:59.902Z,64.95
2023-04-14T03:41:30.973Z,63.40
2023-04-14T03:43:59.967Z,59.68
2023-04-14T03:46:29.271Z,56.77
2023-04-14T03:48:59.776Z,57.18
2023-04-14T03:51:32.011Z,58.49
2023-04-14T03:54:02.570Z,59.81
2023-04-14T03:56:33.398Z,60.82
2023-04-14T03:59:02.919Z,64.06
2023-04-14T04:01:33.198Z,68.50
2023-04-14T04:04:03.258Z,66.68
2023-04-14T04:06:33.540Z,64.15
2023-04-14T04:09:02.797Z,62.89
2023-04-14T04:11:34.850Z,62.16
2023-04-14T04:14:07.166Z,59.33
2023-04-14T04:16:38.530Z,57.08
2023-04-14T04:19:08.244Z,58.16
2023-04-14T04:21:41.737Z,59.28
2023-04-14T04:24:14.791Z,60.37
2023-04-14T04:26:46.728Z,63.26
2023-04-14T04:29:17.708Z,67.11
2023-04-14T04:31:49.813Z,66.20
2023-04-14T04:34:23.766Z,64.79
2023-04-14T04:36:55.736Z,63.72
2023-04-14T04:39:25.761Z,62.18
2023-04-14T04:42:05.749Z,59.12
2023-04-14T04:44:37.741Z,56.58
2023-04-14T04:47:09.808Z,57.77
2023-04-14T04:49:41.780Z,59.20
2023-04-14T04:52:12.272Z,60.86
2023-04-14T04:54:44.755Z,63.74
2023-04-14T04:57:15.751Z,66.43
2023-04-14T04:59:47.741Z,65.51
2023-04-14T05:02:19.951Z,62.92
2023-04-14T05:04:50.902Z,59.70
2023-04-14T05:07:22.834Z,57.74
2023-04-14T05:09:54.808Z,58.82
2023-04-14T05:12:26.827Z,60.46
2023-04-14T05:14:58.772Z,64.40
2023-04-14T05:17:29.904Z,65.26
2023-04-14T05:20:00.822Z,62.90
2023-04-14T05:30:04.816Z,59.43
2023-04-14T05:32:32.655Z,58.77
2023-04-14T05:35:00.642Z,60.74
2023-04-14T05:37:30.222Z,60.91
2023-04-14T05:39:58.688Z,63.43
2023-04-14T05:42:26.636Z,64.87
2023-04-14T05:44:54.366Z,64.27
2023-04-14T05:47:22.249Z,62.74
2023-04-14T05:49:50.003Z,61.61
2023-04-14T05:52:18.825Z,61.22
2023-04-14T05:54:46.589Z,60.81
2023-04-14T05:57:14.342Z,60.00
2023-04-14T05:59:42.151Z,58.62
2023-04-14T06:02:10.071Z,57.84
2023-04-14T06:04:38.136Z,59.64
2023-04-14T06:07:05.996Z,61.13
2023-04-14T06:09:33.721Z,62.29
2023-04-14T06:12:01.836Z,64.12
2023-04-14T06:14:29.719Z,62.33
2023-04-14T06:16:57.932Z,60.73
2023-04-14T06:19:26.145Z,59.92
2023-04-14T06:21:53.959Z,59.01
2023-04-14T06:24:21.819Z,57.94
2023-04-14T06:26:49.748Z,59.35
2023-04-14T06:29:18.415Z,60.35
2023-04-14T06:31:47.149Z,62.25
2023-04-14T06:34:14.986Z,63.10
2023-04-14T06:36:42.738Z,62.01
2023-04-14T06:39:12.796Z,60.42
2023-04-14T06:41:40.824Z,59.94
2023-04-14T06:44:09.291Z,58.45
2023-04-14T06:46:37.109Z,57.98
2023-04-14T06:49:05.542Z,58.85
2023-04-14T06:51:34.279Z,59.63
2023-04-14T06:54:02.798Z,60.37
2023-04-14T06:56:30.968Z,60.73
2023-04-14T06:58:58.684Z,60.73
2023-04-14T07:01:26.456Z,62.66
2023-04-14T07:03:54.434Z,63.58
2023-04-14T07:06:22.239Z,62.92
2023-04-14T07:08:49.986Z,61.51
2023-04-14T07:11:17.807Z,60.74
2023-04-14T07:13:45.631Z,59.42
2023-04-14T07:16:13.510Z,58.79
2023-04-14T07:18:41.400Z,60.06
2023-04-14T07:21:09.208Z,61.66
2023-04-14T07:23:37.666Z,63.02
2023-04-14T07:26:06.187Z,64.23
2023-04-14T07:28:34.225Z,63.21
2023-04-14T07:31:09.140Z,62.39
2023-04-14T07:33:37.258Z,62.06
2023-04-14T07:36:05.301Z,61.10
2023-04-14T07:38:33.321Z,60.54
2023-04-14T07:41:06.469Z,59.88
2023-04-14T07:43:37.691Z,59.13
2023-04-14T07:46:07.778Z,59.09
2023-04-14T07:48:37.687Z,60.75
2023-04-14T07:51:07.097Z,61.03
2023-04-14T07:53:35.153Z,62.63
2023-04-14T07:56:03.324Z,63.36
2023-04-14T07:58:31.117Z,62.77
2023-04-14T08:00:58.841Z,61.77
2023-04-14T08:03:27.239Z,60.70
2023-04-14T08:05:55.722Z,59.77
2023-04-14T08:08:24.673Z,58.47
2023-04-14T08:10:52.578Z,59.47
2023-04-14T08:13:20.413Z,60.85
2023-04-14T08:15:48.986Z,61.84
2023-04-14T08:18:17.200Z,63.04
2023-04-14T08:20:45.230Z,63.03
2023-04-14T08:23:13.178Z,61.99
2023-04-14T08:25:42.342Z,61.26
2023-04-14T08:28:10.444Z,59.11
2023-04-14T08:30:38.490Z,58.74
2023-04-14T08:33:06.343Z,59.51
2023-04-14T08:35:42.162Z,60.87
2023-04-14T08:38:11.270Z,61.03
2023-04-14T08:40:41.849Z,61.74
2023-04-14T08:43:13.158Z,62.71
2023-04-14T08:45:44.603Z,62.39
2023-04-14T08:48:16.941Z,60.97
2023-04-14T08:50:56.327Z,60.25
2023-04-14T08:53:26.580Z,59.83
2023-04-14T08:55:58.007Z,57.94
2023-04-14T08:58:26.677Z,58.19
2023-04-14T09:00:55.938Z,58.21
2023-04-14T09:03:25.205Z,59.96
2023-04-14T09:05:53.611Z,60.21
2023-04-14T09:08:21.854Z,60.90
2023-04-14T09:10:50.951Z,61.08
2023-04-14T09:13:21.760Z,62.22
2023-04-14T09:15:50.171Z,63.06
2023-04-14T09:18:18.096Z,62.49
2023-04-14T09:20:48.128Z,61.11
2023-04-14T09:23:37.451Z,58.57
2023-04-14T09:26:09.313Z,58.35
2023-04-14T09:28:37.965Z,59.25
2023-04-14T09:31:06.483Z,59.26
2023-04-14T09:33:39.907Z,59.94
2023-04-14T09:36:18.554Z,60.90
2023-04-14T09:38:47.318Z,60.92
2023-04-14T09:41:20.217Z,60.81
2023-04-14T09:43:49.295Z,61.58
2023-04-14T09:51:11.640Z,61.73
2023-04-14T09:53:41.269Z,61.46
2023-04-14T09:56:11.713Z,60.84
2023-04-14T09:58:42.235Z,61.29
2023-04-14T10:01:15.823Z,62.05
2023-04-14T10:03:46.452Z,60.52
2023-04-14T10:06:20.738Z,57.93
2023-04-14T10:08:50.519Z,56.92
2023-04-14T10:11:23.152Z,56.38
2023-04-14T10:13:54.280Z,57.09
2023-04-14T10:16:23.357Z,57.47
2023-04-14T10:18:53.298Z,57.72
2023-04-14T10:21:23.189Z,58.65
2023-04-14T10:23:52.110Z,58.88
2023-04-14T10:26:19.999Z,58.46
2023-04-14T10:28:51.064Z,58.55
2023-04-14T10:31:24.000Z,58.66
2023-04-14T10:33:52.682Z,59.39
2023-04-14T10:36:29.252Z,59.07
2023-04-14T10:39:03.349Z,57.93
2023-04-14T10:41:43.898Z,57.17
2023-04-14T10:44:35.620Z,56.94
2023-04-14T10:47:09.702Z,57.74
2023-04-14T10:49:39.537Z,58.54
2023-04-14T10:52:17.022Z,58.22
2023-04-14T10:55:02.760Z,58.15
2023-04-14T10:57:30.594Z,58.15
2023-04-14T11:00:00.042Z,58.45
2023-04-14T11:02:33.511Z,58.57
2023-04-14T11:05:11.037Z,58.62
2023-04-14T11:07:45.826Z,58.30
2023-04-14T11:10:16.730Z,57.25
2023-04-14T11:12:46.194Z,58.41
2023-04-14T11:15:15.739Z,57.65
2023-04-14T11:17:43.940Z,57.80
2023-04-14T11:20:16.915Z,57.28
2023-04-14T11:22:47.030Z,57.56
2023-04-14T11:25:16.963Z,57.46
2023-04-14T11:27:47.217Z,57.10
2023-04-14T11:30:17.655Z,57.58
2023-04-14T11:32:48.099Z,57.64
2023-04-14T11:35:16.678Z,57.56
2023-04-14T11:37:46.178Z,57.51
2023-04-14T11:40:15.987Z,57.49
2023-04-14T11:42:52.164Z,57.64
2023-04-14T11:45:20.954Z,57.20
2023-04-14T11:47:59.234Z,57.12
2023-04-14T11:50:30.688Z,57.30
2023-04-14T11:53:03.172Z,56.98
2023-04-14T11:55:31.461Z,56.97
2023-04-14T11:57:59.422Z,56.98
2023-04-14T12:00:28.130Z,56.98
2023-04-14T12:02:57.061Z,56.80
2023-04-14T12:05:30.508Z,56.98
2023-04-14T12:08:00.468Z,56.28
2023-04-14T12:10:28.820Z,56.76
2023-04-14T12:13:08.827Z,55.95
2023-04-14T12:15:40.802Z,55.37
2023-04-14T12:18:11.742Z,54.86
2023-04-14T12:20:47.374Z,54.65
2023-04-14T12:23:16.176Z,55.01
2023-04-14T12:25:44.177Z,54.17
2023-04-14T12:28:25.362Z,54.50
2023-04-14T12:30:56.685Z,54.93
2023-04-14T12:33:27.890Z,54.76
2023-04-14T12:36:12.560Z,55.10
2023-04-14T12:38:40.488Z,54.13
2023-04-14T12:41:08.607Z,54.29
2023-04-14T12:43:38.887Z,54.10
2023-04-14T12:46:09.999Z,54.32
2023-04-14T12:48:40.298Z,53.91
2023-04-14T12:51:13.825Z,53.99
2023-04-14T12:53:44.253Z,53.94
2023-04-14T12:56:16.114Z,54.06
2023-04-14T12:58:48.738Z,53.99
2023-04-14T13:01:19.071Z,54.17
2023-04-14T13:03:52.039Z,53.80
2023-04-14T13:06:22.979Z,53.66
2023-04-14T13:08:56.516Z,53.89
2023-04-14T13:11:24.829Z,54.28
2023-04-14T13:13:53.896Z,54.38
2023-04-14T13:16:22.673Z,54.46
2023-04-14T13:18:54.112Z,54.68
2023-04-14T13:21:21.957Z,54.35
2023-04-14T13:23:49.875Z,54.11
2023-04-14T13:26:17.693Z,54.42
2023-04-14T13:28:46.103Z,54.60
2023-04-14T13:31:17.753Z,53.64
2023-04-14T13:33:45.917Z,53.21
2023-04-14T13:36:14.097Z,53.46
2023-04-14T13:38:42.170Z,53.34
2023-04-14T13:41:10.105Z,52.86
2023-04-14T13:43:38.016Z,53.21
2023-04-14T13:46:05.862Z,53.59
2023-04-14T13:48:33.772Z,53.25
2023-04-14T13:51:02.047Z,53.74
2023-04-14T13:53:29.841Z,53.52
2023-04-14T13:55:57.666Z,53.60
2023-04-14T13:58:26.381Z,53.77
2023-04-14T14:00:55.446Z,53.64
2023-04-14T14:03:25.326Z,52.76
2023-04-14T14:05:53.439Z,53.30
2023-04-14T14:08:21.392Z,53.71
2023-04-14T14:10:49.357Z,53.67
2023-04-14T14:13:18.553Z,53.45
2023-04-14T14:15:47.870Z,53.29
2023-04-14T14:18:16.682Z,53.42
2023-04-14T14:20:44.707Z,52.66
2023-04-14T14:23:13.067Z,52.68
2023-04-14T14:25:42.416Z,52.64
2023-04-14T14:28:11.154Z,52.98
2023-04-14T14:30:39.273Z,53.40
2023-04-14T14:33:07.637Z,53.60
2023-04-14T14:35:35.544Z,53.61
2023-04-14T14:38:03.378Z,53.77
2023-04-14T14:40:31.630Z,53.45
2023-04-14T14:43:00.127Z,53.82
2023-04-14T14:45:31.008Z,53.70
2023-04-14T14:47:59.588Z,53.44
2023-04-14T14:50:27.432Z,53.00
2023-04-14T14:52:56.993Z,53.22
2023-04-14T14:55:25.134Z,53.72
2023-04-14T14:57:53.127Z,53.78
2023-04-14T15:00:21.195Z,53.82
2023-04-14T15:02:49.165Z,53.86
2023-04-14T15:05:17.333Z,53.81
2023-04-14T15:07:45.325Z,53.53
2023-04-14T15:10:14.707Z,53.51
2023-04-14T15:12:42.552Z,53.09
2023-04-14T15:15:11.098Z,53.38
2023-04-14T15:17:39.090Z,53.41
2023-04-14T15:20:08.447Z,53.40
2023-04-14T15:22:36.577Z,52.66
2023-04-14T15:25:05.200Z,53.36
2023-04-14T15:27:33.053Z,53.61
2023-04-14T15:30:01.088Z,53.77
2023-04-14T15:32:29.088Z,53.56
2023-04-14T15:34:57.374Z,53.66
2023-04-14T15:37:26.529Z,53.41
2023-04-14T15:39:55.486Z,53.52
2023-04-14T15:42:23.446Z,53.65
2023-04-14T15:44:51.552Z,53.86
2023-04-14T15:47:19.602Z,54.02
2023-04-14T15:49:49.880Z,54.30
2023-04-14T15:52:21.027Z,54.45
2023-04-14T15:54:48.777Z,54.76
2023-04-14T15:57:16.908Z,54.68
2023-04-14T15:59:44.689Z,54.74
2023-04-14T16:02:12.567Z,55.00
2023-04-14T16:04:40.670Z,54.93
2023-04-14T16:07:08.862Z,55.11
2023-04-14T16:09:36.873Z,55.22
2023-04-14T16:12:04.693Z,55.35
2023-04-14T16:14:33.804Z,55.46
2023-04-14T16:17:02.193Z,55.69
2023-04-14T16:19:30.141Z,55.88
2023-04-14T16:21:58.059Z,56.07
2023-04-14T16:24:25.991Z,56.03
2023-04-14T16:26:53.863Z,56.34
2023-04-14T16:29:22.347Z,56.41
2023-04-14T16:31:50.326Z,56.46
2023-04-14T16:34:20.558Z,56.70
2023-04-14T16:36:48.401Z,56.73
2023-04-14T16:39:16.283Z,56.86
2023-04-14T16:41:45.820Z,57.10
2023-04-14T16:44:13.940Z,57.39
2023-04-14T16:46:41.875Z,57.66
2023-04-14T16:49:10.199Z,57.64
2023-04-14T16:51:38.574Z,57.86
2023-04-14T16:54:06.487Z,58.09
2023-04-14T16:56:36.793Z,58.42
2023-04-14T16:59:07.269Z,58.70
2023-04-14T17:01:35.263Z,58.65
2023-04-14T17:04:04.187Z,58.76
2023-04-14T17:06:32.592Z,59.07
2023-04-14T17:09:00.966Z,59.75
2023-04-14T17:11:28.853Z,59.53
2023-04-14T17:13:56.687Z,59.50
2023-04-14T17:16:24.738Z,59.77
2023-04-14T17:18:53.562Z,60.03
2023-04-14T17:21:21.387Z,59.94
2023-04-14T17:23:49.339Z,60.24
2023-04-14T17:26:17.140Z,60.80
2023-04-14T17:28:45.989Z,60.69
2023-04-14T17:31:14.592Z,61.03
2023-04-14T17:33:47.234Z,61.18
2023-04-14T17:36:16.693Z,60.94
2023-04-14T17:38:48.172Z,61.02
2023-04-14T17:41:16.009Z,61.08
2023-04-14T17:43:43.901Z,61.27
2023-04-14T17:46:12.128Z,61.42
2023-04-14T17:48:40.478Z,61.85
2023-04-14T17:51:08.435Z,61.83
2023-04-14T17:53:36.695Z,61.80
2023-04-14T17:56:06.056Z,62.64
2023-04-14T17:58:33.879Z,64.22
2023-04-14T18:01:01.666Z,59.77
2023-04-14T18:03:29.761Z,57.34
2023-04-14T18:05:57.621Z,57.52
2023-04-14T18:08:26.067Z,58.02
2023-04-14T18:10:54.246Z,58.66
2023-04-14T18:13:22.201Z,59.37
2023-04-14T18:15:50.051Z,59.95
2023-04-14T18:18:17.906Z,60.06
2023-04-14T18:20:49.076Z,60.88
2023-04-14T18:23:17.639Z,60.90
2023-04-14T18:28:16.669Z,61.58
2023-04-14T18:30:51.930Z,61.99
2023-04-14T18:33:19.739Z,62.09
2023-04-14T18:35:55.327Z,62.66
2023-04-14T18:38:24.833Z,63.01
2023-04-14T18:40:53.298Z,66.14
2023-04-14T18:43:21.296Z,63.76
2023-04-14T18:45:50.274Z,56.15
2023-04-14T18:48:18.182Z,54.49
2023-04-14T18:50:46.752Z,55.50
2023-04-14T18:53:14.936Z,57.09
2023-04-14T18:55:45.111Z,57.99
2023-04-14T18:58:13.908Z,58.89
2023-04-14T19:00:45.252Z,59.17
2023-04-14T19:03:13.655Z,59.58
2023-04-14T19:05:41.734Z,60.50
2023-04-14T19:08:09.639Z,61.27
2023-04-14T19:10:37.768Z,61.24
2023-04-14T19:13:05.927Z,61.72
2023-04-14T19:15:33.971Z,62.03
2023-04-14T19:18:03.712Z,62.85
2023-04-14T19:20:32.152Z,65.26
2023-04-14T19:23:00.443Z,62.93
2023-04-14T19:25:29.543Z,59.28
2023-04-14T19:27:58.627Z,56.59
2023-04-14T19:30:26.433Z,57.26
2023-04-14T19:32:54.666Z,58.11
2023-04-14T19:35:26.641Z,58.83
2023-04-14T19:37:57.097Z,59.68
2023-04-14T19:40:25.540Z,60.21
2023-04-14T19:42:55.360Z,60.41
2023-04-14T19:45:23.559Z,60.72
2023-04-14T19:47:52.026Z,62.31
2023-04-14T19:50:22.754Z,64.22
2023-04-14T19:52:52.164Z,61.06
2023-04-14T19:55:20.124Z,59.73
2023-04-14T19:57:48.384Z,57.04
2023-04-14T20:00:16.980Z,57.88
2023-04-14T20:02:45.232Z,59.27
2023-04-14T20:05:13.422Z,60.32
2023-04-14T20:07:41.490Z,60.76
2023-04-14T20:10:10.272Z,61.17
2023-04-14T20:12:38.334Z,61.36
2023-04-14T20:15:07.312Z,62.41
2023-04-14T20:17:35.224Z,64.64
2023-04-14T20:20:06.064Z,64.10
2023-04-14T20:22:34.360Z,61.25
2023-04-14T20:25:02.499Z,57.33
2023-04-14T20:27:31.708Z,56.13
2023-04-14T20:29:59.730Z,57.18
2023-04-14T20:32:27.582Z,58.02
2023-04-14T20:34:55.599Z,58.95
2023-04-14T20:37:23.879Z,59.83
2023-04-14T20:39:53.307Z,60.86
2023-04-14T20:42:21.292Z,61.26
2023-04-14T20:44:49.268Z,61.75
2023-04-14T20:47:17.421Z,63.24
2023-04-14T20:49:45.444Z,64.18
2023-04-14T20:52:13.208Z,63.02
2023-04-14T20:54:41.097Z,59.78
2023-04-14T20:57:09.960Z,57.37
2023-04-14T20:59:37.870Z,57.59
2023-04-14T21:02:06.584Z,59.05
2023-04-14T21:04:36.102Z,60.20
2023-04-14T21:07:04.867Z,60.57
2023-04-14T21:09:32.690Z,61.43
2023-04-14T21:12:14.293Z,62.76
2023-04-14T21:15:44.577Z,63.73
2023-04-14T21:17:36.635Z,59.40
2023-04-14T21:20:06.018Z,57.18
2023-04-14T21:22:35.302Z,57.91
2023-04-14T21:25:03.507Z,58.79
2023-04-14T21:27:31.481Z,59.83
2023-04-14T21:29:59.556Z,61.28
2023-04-14T21:32:27.489Z,61.63
2023-04-14T21:34:55.721Z,61.76
2023-04-14T21:37:24.177Z,63.53
2023-04-14T21:39:52.093Z,64.66
2023-04-14T21:42:19.933Z,61.71
2023-04-14T21:44:49.424Z,58.29
2023-04-14T21:47:17.929Z,57.61
2023-04-14T21:49:46.149Z,58.76
2023-04-14T21:52:13.994Z,59.23
2023-04-14T21:54:44.410Z,59.71
2023-04-14T21:57:12.449Z,61.17
2023-04-14T21:59:40.254Z,61.93
2023-04-14T22:02:08.073Z,63.51
2023-04-14T22:04:37.469Z,62.56
2023-04-14T22:07:06.608Z,59.91
2023-04-14T22:09:34.636Z,58.15
2023-04-14T22:12:03.456Z,58.54
2023-04-14T22:14:31.430Z,59.47
2023-04-14T22:17:00.935Z,60.35
2023-04-14T22:19:29.171Z,61.39
2023-04-14T22:21:57.060Z,62.30
2023-04-14T22:24:25.406Z,63.92
2023-04-14T22:26:54.193Z,63.94
2023-04-14T22:29:22.021Z,61.20
2023-04-14T22:31:49.931Z,57.56
2023-04-14T22:34:17.890Z,57.05
2023-04-14T22:36:45.801Z,58.09
2023-04-14T22:39:14.279Z,58.97
2023-04-14T22:41:42.314Z,60.40
2023-04-14T22:44:10.160Z,61.40
2023-04-14T22:46:38.072Z,62.05
2023-04-14T22:49:06.386Z,63.37
2023-04-14T22:51:34.353Z,62.98
2023-04-14T22:54:03.823Z,61.02
2023-04-14T22:56:31.762Z,58.38
2023-04-14T22:58:59.911Z,57.68
2023-04-14T23:01:29.612Z,58.89
2023-04-14T23:03:57.665Z,59.36
2023-04-14T23:06:25.941Z,61.21
2023-04-14T23:08:53.854Z,62.45
2023-04-14T23:11:22.118Z,62.98
2023-04-14T23:13:50.429Z,61.63
2023-04-14T23:16:21.893Z,59.29
2023-04-14T23:18:52.347Z,58.03
2023-04-14T23:21:22.377Z,58.52
2023-04-14T23:23:51.917Z,59.62
2023-04-14T23:26:21.914Z,60.66
2023-04-14T23:28:49.836Z,61.84
2023-04-14T23:31:18.211Z,63.00
2023-04-14T23:33:48.778Z,62.79
2023-04-14T23:36:17.514Z,61.97
2023-04-14T23:38:45.576Z,63.85
2023-04-14T23:41:13.513Z,61.26
2023-04-14T23:43:41.519Z,58.48
2023-04-14T23:46:09.671Z,58.07
2023-04-14T23:48:38.101Z,58.77
2023-04-14T23:51:16.265Z,60.06
2023-04-14T23:53:46.173Z,60.79
2023-04-14T23:56:13.989Z,61.57
2023-04-14T23:58:44.021Z,63.25
